sensor_id;sensor_type;location;lat;lon;timestamp;pressure;altitude;pressure_sealevel;temperature;humidity
9717;BME280;4897;43.570;27.832;2023-05-19T00:01:18;98851.22;;;13.98;100.00
9717;BME280;4897;43.570;27.832;2023-05-19T00:03:50;98781.25;;;13.56;100.00
9717;BME280;4897;43.570;27.832;2023-05-19T00:06:21;98837.22;;;13.86;100.00
9717;BME280;4897;43.570;27.832;2023-05-19T00:08:49;98844.81;;;13.91;100.00
9717;BME280;4897;43.570;27.832;2023-05-19T00:11:21;98857.69;;;13.87;100.00
9717;BME280;4897;43.570;27.832;2023-05-19T00:13:48;98852.94;;;13.81;100.00
9717;BME280;4897;43.570;27.832;2023-05-19T00:16:16;98814.31;;;13.56;100.00
9717;BME280;4897;43.570;27.832;2023-05-19T00:18:43;98857.63;;;13.79;100.00
9717;BME280;4897;43.570;27.832;2023-05-19T00:21:13;98848.38;;;13.74;100.00
9717;BME280;4897;43.570;27.832;2023-05-19T00:23:40;98812.56;;;13.22;100.00
9717;BME280;4897;43.570;27.832;2023-05-19T00:26:07;98861.81;;;13.74;100.00
9717;BME280;4897;43.570;27.832;2023-05-19T00:28:33;98853.75;;;13.74;100.00
9717;BME280;4897;43.570;27.832;2023-05-19T00:31:00;98862.19;;;13.79;100.00
9717;BME280;4897;43.570;27.832;2023-05-19T00:33:28;98828.91;;;13.54;100.00
9717;BME280;4897;43.570;27.832;2023-05-19T00:35:54;98844.56;;;13.58;100.00
9717;BME280;4897;43.570;27.832;2023-05-19T00:38:23;98849.16;;;13.66;100.00
9717;BME280;4897;43.570;27.832;2023-05-19T00:40:50;98840.22;;;13.57;100.00
9717;BME280;4897;43.570;27.832;2023-05-19T00:43:17;98850.78;;;13.59;100.00
9717;BME280;4897;43.570;27.832;2023-05-19T00:45:44;98868.50;;;13.70;100.00
9717;BME280;4897;43.570;27.832;2023-05-19T00:48:11;98848.22;;;13.49;100.00
9717;BME280;4897;43.570;27.832;2023-05-19T00:50:43;98858.66;;;13.35;100.00
9717;BME280;4897;43.570;27.832;2023-05-19T00:53:11;98795.13;;;12.91;100.00
9717;BME280;4897;43.570;27.832;2023-05-19T00:55:41;98842.63;;;13.25;100.00
9717;BME280;4897;43.570;27.832;2023-05-19T00:58:08;98878.44;;;13.34;100.00
9717;BME280;4897;43.570;27.832;2023-05-19T01:00:37;98796.91;;;12.82;100.00
9717;BME280;4897;43.570;27.832;2023-05-19T01:03:05;98880.72;;;13.29;100.00
9717;BME280;4897;43.570;27.832;2023-05-19T01:05:37;98851.84;;;12.96;100.00
9717;BME280;4897;43.570;27.832;2023-05-19T01:08:06;98864.25;;;13.06;100.00
9717;BME280;4897;43.570;27.832;2023-05-19T01:10:33;98879.91;;;13.11;100.00
9717;BME280;4897;43.570;27.832;2023-05-19T01:13:02;98871.84;;;13.11;100.00
9717;BME280;4897;43.570;27.832;2023-05-19T01:15:33;98849.78;;;12.90;100.00
9717;BME280;4897;43.570;27.832;2023-05-19T01:18:07;98877.81;;;13.05;100.00
9717;BME280;4897;43.570;27.832;2023-05-19T01:20:39;98871.59;;;13.04;100.00
9717;BME280;4897;43.570;27.832;2023-05-19T01:23:22;98874.19;;;12.96;100.00
9717;BME280;4897;43.570;27.832;2023-05-19T01:26:21;98827.84;;;12.59;100.00
9717;BME280;4897;43.570;27.832;2023-05-19T01:29:28;98882.91;;;12.98;100.00
9717;BME280;4897;43.570;27.832;2023-05-19T01:32:05;98865.50;;;12.84;100.00
9717;BME280;4897;43.570;27.832;2023-05-19T01:34:38;98877.47;;;12.90;100.00
9717;BME280;4897;43.570;27.832;2023-05-19T01:37:10;98885.81;;;12.87;100.00
9717;BME280;4897;43.570;27.832;2023-05-19T01:39:39;98882.44;;;12.85;100.00
9717;BME280;4897;43.570;27.832;2023-05-19T01:42:06;98887.97;;;12.83;100.00
9717;BME280;4897;43.570;27.832;2023-05-19T01:44:33;98885.69;;;12.89;100.00
9717;BME280;4897;43.570;27.832;2023-05-19T01:47:01;98890.41;;;12.77;100.00
9717;BME280;4897;43.570;27.832;2023-05-19T01:49:29;98887.47;;;12.70;100.00
9717;BME280;4897;43.570;27.832;2023-05-19T01:51:56;98866.06;;;12.61;100.00
9717;BME280;4897;43.570;27.832;2023-05-19T01:54:23;98882.69;;;12.64;100.00
9717;BME280;4897;43.570;27.832;2023-05-19T01:56:57;98891.91;;;12.62;100.00
9717;BME280;4897;43.570;27.832;2023-05-19T01:59:35;98890.28;;;12.51;100.00
9717;BME280;4897;43.570;27.832;2023-05-19T02:02:07;98891.78;;;12.54;100.00
9717;BME280;4897;43.570;27.832;2023-05-19T02:04:41;98895.56;;;12.61;100.00
9717;BME280;4897;43.570;27.832;2023-05-19T02:07:13;98882.94;;;12.44;100.00
9717;BME280;4897;43.570;27.832;2023-05-19T02:09:48;98860.72;;;12.34;100.00
9717;BME280;4897;43.570;27.832;2023-05-19T02:12:19;98896.47;;;12.52;100.00
9717;BME280;4897;43.570;27.832;2023-05-19T02:14:59;98905.50;;;12.51;100.00
9717;BME280;4897;43.570;27.832;2023-05-19T02:17:29;98913.16;;;12.46;100.00
9717;BME280;4897;43.570;27.832;2023-05-19T02:19:59;98915.13;;;12.44;100.00
9717;BME280;4897;43.570;27.832;2023-05-19T02:22:26;98894.91;;;12.22;100.00
9717;BME280;4897;43.570;27.832;2023-05-19T02:24:53;98912.94;;;12.30;100.00
9717;BME280;4897;43.570;27.832;2023-05-19T02:27:22;98924.47;;;12.40;100.00
9717;BME280;4897;43.570;27.832;2023-05-19T02:29:48;98918.03;;;12.33;100.00
9717;BME280;4897;43.570;27.832;2023-05-19T02:32:16;98863.91;;;12.10;100.00
9717;BME280;4897;43.570;27.832;2023-05-19T02:34:43;98918.56;;;12.27;100.00
9717;BME280;4897;43.570;27.832;2023-05-19T02:37:12;98908.31;;;12.22;100.00
9717;BME280;4897;43.570;27.832;2023-05-19T02:39:39;98927.00;;;12.41;100.00
9717;BME280;4897;43.570;27.832;2023-05-19T02:42:06;98922.63;;;12.40;100.00
9717;BME280;4897;43.570;27.832;2023-05-19T02:44:33;98933.53;;;12.39;100.00
9717;BME280;4897;43.570;27.832;2023-05-19T02:47:01;98922.38;;;12.34;100.00
9717;BME280;4897;43.570;27.832;2023-05-19T02:49:28;98941.41;;;12.31;100.00
9717;BME280;4897;43.570;27.832;2023-05-19T02:52:00;98936.91;;;12.41;100.00
9717;BME280;4897;43.570;27.832;2023-05-19T02:54:28;98897.94;;;12.10;100.00
9717;BME280;4897;43.570;27.832;2023-05-19T02:57:01;98919.75;;;12.24;100.00
9717;BME280;4897;43.570;27.832;2023-05-19T02:59:28;98940.56;;;12.40;100.00
9717;BME280;4897;43.570;27.832;2023-05-19T03:02:01;98923.50;;;12.41;100.00
9717;BME280;4897;43.570;27.832;2023-05-19T03:04:28;98924.72;;;12.46;100.00
9717;BME280;4897;43.570;27.832;2023-05-19T03:06:55;98936.94;;;12.58;100.00
9717;BME280;4897;43.570;27.832;2023-05-19T03:09:22;98943.25;;;12.67;100.00
9717;BME280;4897;43.570;27.832;2023-05-19T03:11:52;98928.06;;;12.58;100.00
9717;BME280;4897;43.570;27.832;2023-05-19T03:14:19;98935.53;;;12.64;100.00
9717;BME280;4897;43.570;27.832;2023-05-19T03:16:48;98937.63;;;12.70;100.00
9717;BME280;4897;43.570;27.832;2023-05-19T03:19:15;98931.09;;;12.72;100.00
9717;BME280;4897;43.570;27.832;2023-05-19T03:21:42;98914.63;;;12.58;100.00
9717;BME280;4897;43.570;27.832;2023-05-19T03:24:12;98930.25;;;12.72;100.00
9717;BME280;4897;43.570;27.832;2023-05-19T03:26:39;98933.53;;;12.93;100.00
9717;BME280;4897;43.570;27.832;2023-05-19T03:29:07;98928.16;;;12.93;100.00
9717;BME280;4897;43.570;27.832;2023-05-19T03:31:34;98946.03;;;13.02;100.00
9717;BME280;4897;43.570;27.832;2023-05-19T03:34:01;98940.56;;;12.76;100.00
9717;BME280;4897;43.570;27.832;2023-05-19T03:36:28;98947.09;;;12.92;100.00
9717;BME280;4897;43.570;27.832;2023-05-19T03:39:00;98942.28;;;12.95;100.00
9717;BME280;4897;43.570;27.832;2023-05-19T03:41:27;98953.31;;;12.92;100.00
9717;BME280;4897;43.570;27.832;2023-05-19T03:43:54;98954.16;;;12.93;100.00
9717;BME280;4897;43.570;27.832;2023-05-19T03:46:22;98952.19;;;12.85;100.00
9717;BME280;4897;43.570;27.832;2023-05-19T03:48:49;98953.56;;;12.99;100.00
9717;BME280;4897;43.570;27.832;2023-05-19T03:51:16;98958.75;;;13.00;100.00
9717;BME280;4897;43.570;27.832;2023-05-19T03:53:43;98931.75;;;12.84;100.00
9717;BME280;4897;43.570;27.832;2023-05-19T03:56:10;98956.78;;;13.02;100.00
9717;BME280;4897;43.570;27.832;2023-05-19T03:58:38;98977.25;;;13.03;100.00
9717;BME280;4897;43.570;27.832;2023-05-19T04:01:05;98955.78;;;13.03;100.00
9717;BME280;4897;43.570;27.832;2023-05-19T04:03:33;98892.34;;;12.84;100.00
9717;BME280;4897;43.570;27.832;2023-05-19T04:06:00;98773.25;;;12.06;100.00
9717;BME280;4897;43.570;27.832;2023-05-19T04:08:30;98967.31;;;13.40;100.00
9717;BME280;4897;43.570;27.832;2023-05-19T04:10:56;98957.09;;;13.26;100.00
9717;BME280;4897;43.570;27.832;2023-05-19T04:13:23;98971.06;;;13.47;100.00
9717;BME280;4897;43.570;27.832;2023-05-19T04:15:50;98972.22;;;13.45;100.00
9717;BME280;4897;43.570;27.832;2023-05-19T04:18:17;98964.00;;;13.46;100.00
9717;BME280;4897;43.570;27.832;2023-05-19T04:20:46;98976.06;;;13.60;100.00
9717;BME280;4897;43.570;27.832;2023-05-19T04:23:13;98965.63;;;13.75;100.00
9717;BME280;4897;43.570;27.832;2023-05-19T04:25:40;98974.75;;;13.82;100.00
9717;BME280;4897;43.570;27.832;2023-05-19T04:28:07;98958.31;;;13.85;100.00
9717;BME280;4897;43.570;27.832;2023-05-19T04:30:34;98979.53;;;14.13;100.00
9717;BME280;4897;43.570;27.832;2023-05-19T04:33:01;98972.03;;;14.25;100.00
9717;BME280;4897;43.570;27.832;2023-05-19T04:35:29;98884.44;;;13.89;100.00
9717;BME280;4897;43.570;27.832;2023-05-19T04:37:57;98970.75;;;14.55;100.00
9717;BME280;4897;43.570;27.832;2023-05-19T04:40:24;98984.88;;;14.82;100.00
9717;BME280;4897;43.570;27.832;2023-05-19T04:42:51;98967.63;;;15.01;100.00
9717;BME280;4897;43.570;27.832;2023-05-19T04:45:21;98956.69;;;15.02;100.00
9717;BME280;4897;43.570;27.832;2023-05-19T04:47:48;98969.16;;;15.53;100.00
9717;BME280;4897;43.570;27.832;2023-05-19T04:50:17;98971.88;;;15.77;100.00
9717;BME280;4897;43.570;27.832;2023-05-19T04:52:43;98974.41;;;16.03;100.00
9717;BME280;4897;43.570;27.832;2023-05-19T04:55:15;98966.81;;;16.15;100.00
9717;BME280;4897;43.570;27.832;2023-05-19T04:57:44;98975.06;;;16.29;100.00
9717;BME280;4897;43.570;27.832;2023-05-19T05:00:12;98973.34;;;16.44;100.00
9717;BME280;4897;43.570;27.832;2023-05-19T05:02:39;98965.25;;;16.44;100.00
9717;BME280;4897;43.570;27.832;2023-05-19T05:05:08;98941.16;;;16.43;100.00
9717;BME280;4897;43.570;27.832;2023-05-19T05:07:34;98990.16;;;16.87;100.00
9717;BME280;4897;43.570;27.832;2023-05-19T05:10:02;98986.22;;;16.97;100.00
9717;BME280;4897;43.570;27.832;2023-05-19T05:12:31;98924.22;;;16.65;100.00
9717;BME280;4897;43.570;27.832;2023-05-19T05:14:58;98994.84;;;17.31;100.00
9717;BME280;4897;43.570;27.832;2023-05-19T05:17:26;98952.41;;;17.40;100.00
9717;BME280;4897;43.570;27.832;2023-05-19T05:19:54;98979.41;;;17.79;100.00
9717;BME280;4897;43.570;27.832;2023-05-19T05:22:22;98957.91;;;18.22;100.00
9717;BME280;4897;43.570;27.832;2023-05-19T05:24:50;98980.88;;;18.78;100.00
9717;BME280;4897;43.570;27.832;2023-05-19T05:27:17;98957.31;;;19.23;100.00
9717;BME280;4897;43.570;27.832;2023-05-19T05:29:46;98974.50;;;19.65;100.00
9717;BME280;4897;43.570;27.832;2023-05-19T05:32:12;98972.53;;;20.16;100.00
9717;BME280;4897;43.570;27.832;2023-05-19T05:34:41;98954.38;;;20.38;100.00
9717;BME280;4897;43.570;27.832;2023-05-19T05:37:08;98979.63;;;20.66;100.00
9717;BME280;4897;43.570;27.832;2023-05-19T05:39:38;98983.03;;;20.47;100.00
9717;BME280;4897;43.570;27.832;2023-05-19T05:42:09;98936.59;;;19.72;100.00
9717;BME280;4897;43.570;27.832;2023-05-19T05:44:36;98972.19;;;20.47;100.00
9717;BME280;4897;43.570;27.832;2023-05-19T05:47:05;98986.97;;;21.40;100.00
9717;BME280;4897;43.570;27.832;2023-05-19T05:49:37;98982.91;;;21.71;100.00
9717;BME280;4897;43.570;27.832;2023-05-19T05:52:05;98995.66;;;21.64;100.00
9717;BME280;4897;43.570;27.832;2023-05-19T05:54:34;98958.53;;;21.43;100.00
9717;BME280;4897;43.570;27.832;2023-05-19T05:57:01;99008.97;;;21.99;100.00
9717;BME280;4897;43.570;27.832;2023-05-19T05:59:28;98991.16;;;21.97;100.00
9717;BME280;4897;43.570;27.832;2023-05-19T06:01:55;98992.06;;;22.23;99.52
9717;BME280;4897;43.570;27.832;2023-05-19T06:04:24;98968.88;;;23.18;88.55
9717;BME280;4897;43.570;27.832;2023-05-19T06:06:53;98995.38;;;23.68;73.87
9717;BME280;4897;43.570;27.832;2023-05-19T06:09:25;98980.00;;;23.23;77.40
9717;BME280;4897;43.570;27.832;2023-05-19T06:11:52;98967.56;;;23.46;73.66
9717;BME280;4897;43.570;27.832;2023-05-19T06:14:19;98980.25;;;23.15;66.17
9717;BME280;4897;43.570;27.832;2023-05-19T06:16:46;98984.09;;;22.68;74.93
9717;BME280;4897;43.570;27.832;2023-05-19T06:19:20;98981.09;;;23.09;71.56
9717;BME280;4897;43.570;27.832;2023-05-19T06:21:50;98993.31;;;22.47;76.08
9717;BME280;4897;43.570;27.832;2023-05-19T06:24:17;98989.91;;;21.93;82.19
9717;BME280;4897;43.570;27.832;2023-05-19T06:26:44;98988.16;;;21.79;86.89
9717;BME280;4897;43.570;27.832;2023-05-19T06:29:11;98972.56;;;21.46;92.94
9717;BME280;4897;43.570;27.832;2023-05-19T06:31:41;98984.69;;;21.37;99.66
9717;BME280;4897;43.570;27.832;2023-05-19T06:34:08;99010.66;;;21.40;100.00
9717;BME280;4897;43.570;27.832;2023-05-19T06:36:36;99000.72;;;21.26;100.00
9717;BME280;4897;43.570;27.832;2023-05-19T06:39:08;99001.66;;;21.05;100.00
9717;BME280;4897;43.570;27.832;2023-05-19T06:41:37;99000.72;;;21.19;100.00
9717;BME280;4897;43.570;27.832;2023-05-19T06:44:05;98995.97;;;21.34;100.00
9717;BME280;4897;43.570;27.832;2023-05-19T06:46:34;99007.38;;;21.64;99.23
9717;BME280;4897;43.570;27.832;2023-05-19T06:49:01;98988.59;;;21.76;95.92
9717;BME280;4897;43.570;27.832;2023-05-19T06:51:28;99006.28;;;22.12;94.90
9717;BME280;4897;43.570;27.832;2023-05-19T06:53:55;99013.00;;;22.23;91.75
9717;BME280;4897;43.570;27.832;2023-05-19T06:56:24;99010.94;;;22.32;84.37
9717;BME280;4897;43.570;27.832;2023-05-19T06:58:51;99015.94;;;22.15;83.21
9717;BME280;4897;43.570;27.832;2023-05-19T07:01:17;99015.50;;;22.24;86.94
9717;BME280;4897;43.570;27.832;2023-05-19T07:03:44;98998.75;;;22.21;83.93
9717;BME280;4897;43.570;27.832;2023-05-19T07:06:11;99019.28;;;22.30;80.41
9717;BME280;4897;43.570;27.832;2023-05-19T07:08:38;99015.09;;;22.14;80.72
9717;BME280;4897;43.570;27.832;2023-05-19T07:11:05;98962.28;;;22.02;86.50
9717;BME280;4897;43.570;27.832;2023-05-19T07:13:33;99013.66;;;22.38;83.52
9717;BME280;4897;43.570;27.832;2023-05-19T07:16:00;98986.59;;;22.43;77.58
9717;BME280;4897;43.570;27.832;2023-05-19T07:18:27;99009.06;;;22.58;75.85
9717;BME280;4897;43.570;27.832;2023-05-19T07:20:56;99015.78;;;22.62;77.57
9717;BME280;4897;43.570;27.832;2023-05-19T07:23:26;99013.91;;;22.76;76.67
9717;BME280;4897;43.570;27.832;2023-05-19T07:25:53;99016.19;;;22.72;75.25
9717;BME280;4897;43.570;27.832;2023-05-19T07:28:21;99016.81;;;22.81;74.57
9717;BME280;4897;43.570;27.832;2023-05-19T07:30:49;99009.03;;;22.97;72.11
9717;BME280;4897;43.570;27.832;2023-05-19T07:33:19;98999.59;;;23.00;66.85
9717;BME280;4897;43.570;27.832;2023-05-19T07:35:47;99025.75;;;23.21;63.94
9717;BME280;4897;43.570;27.832;2023-05-19T07:38:14;99016.25;;;23.43;63.82
9717;BME280;4897;43.570;27.832;2023-05-19T07:40:40;99010.81;;;23.87;64.53
9717;BME280;4897;43.570;27.832;2023-05-19T07:43:07;99007.72;;;24.95;58.67
9717;BME280;4897;43.570;27.832;2023-05-19T07:45:35;98867.09;;;26.03;51.34
9717;BME280;4897;43.570;27.832;2023-05-19T07:48:04;98979.75;;;27.76;48.11
9717;BME280;4897;43.570;27.832;2023-05-19T07:50:32;98999.31;;;28.19;44.49
9717;BME280;4897;43.570;27.832;2023-05-19T07:53:01;98973.16;;;28.33;43.11
9717;BME280;4897;43.570;27.832;2023-05-19T07:55:28;98992.28;;;28.56;43.26
9717;BME280;4897;43.570;27.832;2023-05-19T07:57:55;98997.78;;;28.56;41.97
9717;BME280;4897;43.570;27.832;2023-05-19T08:00:22;98996.81;;;28.79;41.82
9717;BME280;4897;43.570;27.832;2023-05-19T08:02:50;98993.50;;;28.04;43.18
9717;BME280;4897;43.570;27.832;2023-05-19T08:05:19;98968.75;;;28.48;41.99
9717;BME280;4897;43.570;27.832;2023-05-19T08:07:46;98989.75;;;27.42;43.20
9717;BME280;4897;43.570;27.832;2023-05-19T08:10:13;98984.91;;;26.86;45.46
9717;BME280;4897;43.570;27.832;2023-05-19T08:12:40;99020.28;;;26.64;47.37
9717;BME280;4897;43.570;27.832;2023-05-19T08:15:08;99014.59;;;26.66;47.51
9717;BME280;4897;43.570;27.832;2023-05-19T08:17:36;99002.63;;;26.07;48.26
9717;BME280;4897;43.570;27.832;2023-05-19T08:20:04;98994.06;;;27.15;45.62
9717;BME280;4897;43.570;27.832;2023-05-19T08:22:35;98934.59;;;27.43;43.61
9717;BME280;4897;43.570;27.832;2023-05-19T08:25:02;98977.50;;;27.73;43.12
9717;BME280;4897;43.570;27.832;2023-05-19T08:27:30;98998.72;;;27.37;44.48
9717;BME280;4897;43.570;27.832;2023-05-19T08:29:57;99004.41;;;28.88;42.26
9717;BME280;4897;43.570;27.832;2023-05-19T08:32:24;98991.44;;;29.22;41.21
9717;BME280;4897;43.570;27.832;2023-05-19T08:34:51;99010.59;;;28.34;41.81
9717;BME280;4897;43.570;27.832;2023-05-19T08:37:18;99003.06;;;28.58;40.55
9717;BME280;4897;43.570;27.832;2023-05-19T08:39:47;99008.00;;;28.72;39.46
9717;BME280;4897;43.570;27.832;2023-05-19T08:42:13;98997.16;;;29.37;38.26
9717;BME280;4897;43.570;27.832;2023-05-19T08:44:41;98992.13;;;27.90;39.80
9717;BME280;4897;43.570;27.832;2023-05-19T08:47:08;99020.72;;;26.91;41.64
9717;BME280;4897;43.570;27.832;2023-05-19T08:49:43;99036.22;;;26.74;42.12
9717;BME280;4897;43.570;27.832;2023-05-19T08:52:18;99022.94;;;27.63;41.04
9717;BME280;4897;43.570;27.832;2023-05-19T08:54:52;99032.38;;;26.34;40.93
9717;BME280;4897;43.570;27.832;2023-05-19T08:57:23;99019.75;;;28.39;39.34
9717;BME280;4897;43.570;27.832;2023-05-19T08:59:54;98996.41;;;30.97;35.51
9717;BME280;4897;43.570;27.832;2023-05-19T09:02:22;99011.38;;;32.04;34.19
9717;BME280;4897;43.570;27.832;2023-05-19T09:04:49;99010.66;;;33.35;32.70
9717;BME280;4897;43.570;27.832;2023-05-19T09:07:17;98992.13;;;32.90;32.47
9717;BME280;4897;43.570;27.832;2023-05-19T09:09:45;99010.41;;;31.74;33.63
9717;BME280;4897;43.570;27.832;2023-05-19T09:12:13;99000.91;;;29.14;36.75
9717;BME280;4897;43.570;27.832;2023-05-19T09:14:41;98988.94;;;27.30;38.80
9717;BME280;4897;43.570;27.832;2023-05-19T09:17:08;99009.97;;;27.01;40.07
9717;BME280;4897;43.570;27.832;2023-05-19T09:19:41;99033.22;;;26.75;40.61
9717;BME280;4897;43.570;27.832;2023-05-19T09:22:08;98922.25;;;25.95;41.01
9717;BME280;4897;43.570;27.832;2023-05-19T09:24:35;99003.34;;;29.11;37.11
9717;BME280;4897;43.570;27.832;2023-05-19T09:27:04;98945.22;;;30.47;34.59
9717;BME280;4897;43.570;27.832;2023-05-19T09:29:33;98996.81;;;29.34;36.64
9717;BME280;4897;43.570;27.832;2023-05-19T09:32:00;98972.81;;;28.13;38.31
9717;BME280;4897;43.570;27.832;2023-05-19T09:34:29;99018.66;;;28.85;36.33
9717;BME280;4897;43.570;27.832;2023-05-19T09:36:56;99030.59;;;27.61;38.17
9717;BME280;4897;43.570;27.832;2023-05-19T09:39:24;99034.88;;;26.76;39.59
9717;BME280;4897;43.570;27.832;2023-05-19T09:41:54;98999.13;;;26.42;39.59
9717;BME280;4897;43.570;27.832;2023-05-19T09:44:23;98997.09;;;26.26;40.79
9717;BME280;4897;43.570;27.832;2023-05-19T09:46:55;99033.47;;;28.51;37.66
9717;BME280;4897;43.570;27.832;2023-05-19T09:49:23;99009.19;;;27.63;38.56
9717;BME280;4897;43.570;27.832;2023-05-19T09:51:54;99019.16;;;26.72;39.75
9717;BME280;4897;43.570;27.832;2023-05-19T09:54:21;99045.34;;;28.40;38.54
9717;BME280;4897;43.570;27.832;2023-05-19T09:56:56;99032.31;;;29.90;35.95
9717;BME280;4897;43.570;27.832;2023-05-19T09:59:24;99012.50;;;29.93;36.09
9717;BME280;4897;43.570;27.832;2023-05-19T10:01:55;98981.06;;;31.63;33.44
9717;BME280;4897;43.570;27.832;2023-05-19T10:04:23;99015.16;;;33.05;32.60
9717;BME280;4897;43.570;27.832;2023-05-19T10:06:51;99027.31;;;34.14;31.38
9717;BME280;4897;43.570;27.832;2023-05-19T10:09:21;99020.63;;;35.02;30.09
9717;BME280;4897;43.570;27.832;2023-05-19T10:11:50;99005.41;;;35.23;29.43
9717;BME280;4897;43.570;27.832;2023-05-19T10:14:19;99008.56;;;34.39;29.57
9717;BME280;4897;43.570;27.832;2023-05-19T10:16:49;99026.75;;;34.17;29.81
9717;BME280;4897;43.570;27.832;2023-05-19T10:19:20;99017.38;;;33.98;29.73
9717;BME280;4897;43.570;27.832;2023-05-19T10:21:48;99021.50;;;34.59;29.70
9717;BME280;4897;43.570;27.832;2023-05-19T10:24:15;99021.69;;;34.29;29.63
9717;BME280;4897;43.570;27.832;2023-05-19T10:26:45;99017.25;;;33.64;29.85
9717;BME280;4897;43.570;27.832;2023-05-19T10:29:18;99014.25;;;33.50;30.25
9717;BME280;4897;43.570;27.832;2023-05-19T10:31:46;99027.03;;;34.15;29.50
9717;BME280;4897;43.570;27.832;2023-05-19T10:34:33;99013.25;;;31.89;30.96
9717;BME280;4897;43.570;27.832;2023-05-19T10:37:12;99028.06;;;30.04;32.97
9717;BME280;4897;43.570;27.832;2023-05-19T10:39:42;99023.91;;;29.03;34.51
9717;BME280;4897;43.570;27.832;2023-05-19T10:42:14;98908.78;;;27.73;35.74
9717;BME280;4897;43.570;27.832;2023-05-19T10:44:52;99022.59;;;28.00;36.53
9717;BME280;4897;43.570;27.832;2023-05-19T10:47:23;99030.19;;;27.69;37.39
9717;BME280;4897;43.570;27.832;2023-05-19T10:49:52;99007.47;;;28.75;36.33
9717;BME280;4897;43.570;27.832;2023-05-19T10:52:20;99003.56;;;30.93;33.02
9717;BME280;4897;43.570;27.832;2023-05-19T10:54:50;99017.88;;;32.75;31.33
9717;BME280;4897;43.570;27.832;2023-05-19T10:57:20;99007.09;;;32.89;30.58
9717;BME280;4897;43.570;27.832;2023-05-19T10:59:50;99003.63;;;30.98;31.71
9717;BME280;4897;43.570;27.832;2023-05-19T11:02:37;99007.56;;;29.95;33.90
9717;BME280;4897;43.570;27.832;2023-05-19T11:05:10;99009.97;;;30.66;32.68
9717;BME280;4897;43.570;27.832;2023-05-19T11:07:40;99004.81;;;32.30;31.21
9717;BME280;4897;43.570;27.832;2023-05-19T11:10:09;99002.63;;;33.33;30.01
9717;BME280;4897;43.570;27.832;2023-05-19T11:12:40;99003.69;;;33.47;29.81
9717;BME280;4897;43.570;27.832;2023-05-19T11:15:10;99002.72;;;34.41;27.84
9717;BME280;4897;43.570;27.832;2023-05-19T11:17:38;99007.19;;;33.78;28.46
9717;BME280;4897;43.570;27.832;2023-05-19T11:20:07;99005.19;;;31.82;30.93
9717;BME280;4897;43.570;27.832;2023-05-19T11:22:36;98987.69;;;30.46;32.30
9717;BME280;4897;43.570;27.832;2023-05-19T11:25:04;98981.50;;;32.01;31.22
9717;BME280;4897;43.570;27.832;2023-05-19T11:27:32;99014.28;;;32.90;29.99
9717;BME280;4897;43.570;27.832;2023-05-19T11:30:08;99001.50;;;33.39;28.52
9717;BME280;4897;43.570;27.832;2023-05-19T11:32:40;98998.38;;;34.25;28.92
9717;BME280;4897;43.570;27.832;2023-05-19T11:35:09;99005.72;;;33.01;29.53
9717;BME280;4897;43.570;27.832;2023-05-19T11:37:37;99010.25;;;33.81;29.10
9717;BME280;4897;43.570;27.832;2023-05-19T11:40:06;98990.69;;;34.55;27.33
9717;BME280;4897;43.570;27.832;2023-05-19T11:42:34;98990.44;;;34.47;27.65
9717;BME280;4897;43.570;27.832;2023-05-19T11:45:02;98985.13;;;34.89;26.82
9717;BME280;4897;43.570;27.832;2023-05-19T11:47:30;98959.28;;;34.60;26.47
9717;BME280;4897;43.570;27.832;2023-05-19T11:49:58;98988.03;;;34.35;25.96
9717;BME280;4897;43.570;27.832;2023-05-19T11:52:25;98988.03;;;34.35;27.16
9717;BME280;4897;43.570;27.832;2023-05-19T11:54:54;98985.47;;;35.11;26.26
9717;BME280;4897;43.570;27.832;2023-05-19T11:57:21;98982.44;;;35.36;26.46
9717;BME280;4897;43.570;27.832;2023-05-19T11:59:51;98980.41;;;35.47;26.13
9717;BME280;4897;43.570;27.832;2023-05-19T12:02:21;98979.00;;;35.45;26.71
9717;BME280;4897;43.570;27.832;2023-05-19T12:04:49;98958.94;;;35.00;27.23
9717;BME280;4897;43.570;27.832;2023-05-19T12:07:21;98974.63;;;33.99;28.23
9717;BME280;4897;43.570;27.832;2023-05-19T12:09:49;98960.44;;;34.83;27.52
9717;BME280;4897;43.570;27.832;2023-05-19T12:12:19;98975.47;;;34.48;26.98
9717;BME280;4897;43.570;27.832;2023-05-19T12:14:48;99002.84;;;33.62;26.74
9717;BME280;4897;43.570;27.832;2023-05-19T12:17:16;98962.75;;;33.14;27.91
9717;BME280;4897;43.570;27.832;2023-05-19T12:19:45;98989.28;;;34.58;27.01
9717;BME280;4897;43.570;27.832;2023-05-19T12:22:15;98977.47;;;34.76;27.20
9717;BME280;4897;43.570;27.832;2023-05-19T12:24:43;98987.63;;;33.34;28.40
9717;BME280;4897;43.570;27.832;2023-05-19T12:27:22;98948.38;;;32.57;29.17
9717;BME280;4897;43.570;27.832;2023-05-19T12:29:51;98987.09;;;33.37;28.51
9717;BME280;4897;43.570;27.832;2023-05-19T12:32:22;98970.00;;;32.75;27.36
9717;BME280;4897;43.570;27.832;2023-05-19T12:34:50;98873.63;;;32.11;27.34
9717;BME280;4897;43.570;27.832;2023-05-19T12:37:17;98947.78;;;33.84;26.91
9717;BME280;4897;43.570;27.832;2023-05-19T12:39:44;98975.97;;;34.89;26.83
9717;BME280;4897;43.570;27.832;2023-05-19T12:42:11;98957.94;;;35.86;26.35
9717;BME280;4897;43.570;27.832;2023-05-19T12:44:42;98890.22;;;34.77;26.00
9717;BME280;4897;43.570;27.832;2023-05-19T12:47:11;98986.44;;;34.63;26.80
9717;BME280;4897;43.570;27.832;2023-05-19T12:49:52;98966.84;;;34.49;26.71
9717;BME280;4897;43.570;27.832;2023-05-19T12:52:19;98961.88;;;34.80;26.41
9717;BME280;4897;43.570;27.832;2023-05-19T12:54:49;98968.59;;;35.31;25.99
9717;BME280;4897;43.570;27.832;2023-05-19T12:57:19;98869.47;;;34.98;25.77
9717;BME280;4897;43.570;27.832;2023-05-19T12:59:49;98965.69;;;34.89;25.40
9717;BME280;4897;43.570;27.832;2023-05-19T13:02:16;98988.06;;;35.31;25.46
9717;BME280;4897;43.570;27.832;2023-05-19T13:04:43;98975.88;;;35.75;25.61
9717;BME280;4897;43.570;27.832;2023-05-19T13:07:10;98957.22;;;35.57;25.34
9717;BME280;4897;43.570;27.832;2023-05-19T13:09:38;98947.13;;;36.03;25.52
9717;BME280;4897;43.570;27.832;2023-05-19T13:12:05;98979.28;;;35.19;25.03
9717;BME280;4897;43.570;27.832;2023-05-19T13:14:32;98953.19;;;35.15;25.46